createdAt,value
2019-02-10T00:00:06.641Z,4.40
2019-02-10T00:02:38.499Z,4.35
2019-02-10T00:05:08.741Z,4.35
2019-02-10T00:07:39.008Z,4.35
2019-02-10T00:10:09.240Z,4.30
2019-02-10T00:12:39.503Z,4.33
2019-02-10T00:15:09.744Z,4.29
2019-02-10T00:17:40.472Z,4.27
2019-02-10T00:20:10.708Z,4.29
2019-02-10T00:22:40.972Z,4.27
2019-02-10T00:25:11.491Z,4.27
2019-02-10T00:27:41.827Z,4.27
2019-02-10T00:30:12.059Z,4.30
2019-02-10T00:32:43.331Z,4.24
2019-02-10T00:35:13.568Z,4.24
2019-02-10T00:37:43.829Z,4.23
2019-02-10T00:40:14.059Z,4.20
2019-02-10T00:42:44.324Z,4.17
2019-02-10T00:45:14.555Z,4.15
2019-02-10T00:47:44.816Z,4.13
2019-02-10T00:50:15.057Z,4.09
2019-02-10T00:52:45.324Z,4.11
2019-02-10T00:55:15.553Z,4.07
2019-02-10T00:57:45.812Z,4.06
2019-02-10T01:00:17.721Z,4.01
2019-02-10T01:02:49.387Z,3.98
2019-02-10T01:05:19.689Z,3.99
2019-02-10T01:07:49.944Z,3.94
2019-02-10T01:10:21.054Z,3.91
2019-02-10T01:12:51.852Z,3.87
2019-02-10T01:15:22.090Z,3.87
2019-02-10T01:17:52.339Z,3.82
2019-02-10T01:20:22.575Z,3.81
2019-02-10T01:22:52.888Z,3.77
2019-02-10T01:25:23.075Z,3.75
2019-02-10T01:27:53.325Z,3.74
2019-02-10T01:30:23.567Z,3.70
2019-02-10T01:32:53.827Z,3.69
2019-02-10T01:35:24.070Z,3.70
2019-02-10T01:37:54.322Z,3.69
2019-02-10T01:40:24.562Z,3.73
2019-02-10T01:42:54.818Z,3.71
2019-02-10T01:45:25.051Z,3.68
2019-02-10T01:47:55.304Z,3.70
2019-02-10T01:50:25.541Z,3.66
2019-02-10T01:52:55.801Z,3.64
2019-02-10T01:55:26.062Z,3.63
2019-02-10T01:57:56.296Z,3.67
2019-02-10T02:00:26.531Z,3.67
2019-02-10T02:02:56.790Z,3.67
2019-02-10T02:05:27.029Z,3.65
2019-02-10T02:07:57.293Z,3.61
2019-02-10T02:10:27.532Z,3.64
2019-02-10T02:12:57.794Z,3.62
2019-02-10T02:15:28.033Z,3.64
2019-02-10T02:17:58.284Z,3.63
2019-02-10T02:20:28.517Z,3.61
2019-02-10T02:22:58.761Z,3.61
2019-02-10T02:25:29.010Z,3.59
2019-02-10T02:27:59.238Z,3.58
2019-02-10T02:30:29.503Z,3.54
2019-02-10T02:33:00.756Z,3.57
2019-02-10T02:35:31.000Z,3.57
2019-02-10T02:38:01.253Z,3.57
2019-02-10T02:40:31.482Z,3.53
2019-02-10T02:43:01.713Z,3.56
2019-02-10T02:45:31.957Z,3.53
2019-02-10T02:48:02.284Z,3.50
2019-02-10T02:50:33.657Z,3.46
2019-02-10T02:53:03.884Z,3.42
2019-02-10T02:55:34.122Z,3.39
2019-02-10T02:58:04.359Z,3.32
2019-02-10T03:00:34.592Z,3.28
2019-02-10T03:03:04.829Z,3.22
2019-02-10T03:05:35.548Z,3.19
2019-02-10T03:08:05.785Z,3.15
2019-02-10T03:10:36.030Z,3.13
2019-02-10T03:13:06.273Z,3.05
2019-02-10T03:15:36.510Z,3.05
2019-02-10T03:18:06.747Z,3.04
2019-02-10T03:20:36.978Z,3.00
2019-02-10T03:23:07.212Z,2.97
2019-02-10T03:25:37.632Z,2.92
2019-02-10T03:28:07.863Z,2.91
2019-02-10T03:30:38.098Z,2.86
2019-02-10T03:33:09.166Z,2.82
2019-02-10T03:35:39.404Z,2.79
2019-02-10T03:38:09.656Z,2.76
2019-02-10T03:40:39.890Z,2.76
2019-02-10T03:43:10.126Z,2.70
2019-02-10T03:45:40.372Z,2.67
2019-02-10T03:48:10.610Z,2.64
2019-02-10T03:50:40.857Z,2.65
2019-02-10T03:53:11.109Z,2.61
2019-02-10T03:55:41.345Z,2.59
2019-02-10T03:58:11.582Z,2.57
2019-02-10T04:00:41.834Z,2.55
2019-02-10T04:03:12.065Z,2.51
2019-02-10T04:05:42.309Z,2.50
2019-02-10T04:08:12.542Z,2.49
2019-02-10T04:10:42.803Z,2.49
2019-02-10T04:13:13.071Z,2.49
2019-02-10T04:15:43.299Z,2.46
2019-02-10T04:18:13.531Z,2.45
2019-02-10T04:20:43.795Z,2.41
2019-02-10T04:23:14.033Z,2.39
2019-02-10T04:25:44.299Z,2.37
2019-02-10T04:28:14.528Z,2.35
2019-02-10T04:30:44.789Z,2.31
2019-02-10T04:33:16.037Z,2.28
2019-02-10T04:35:46.566Z,2.28
2019-02-10T04:38:16.812Z,2.25
2019-02-10T04:40:47.066Z,2.25
2019-02-10T04:43:17.303Z,2.23
2019-02-10T04:45:47.560Z,2.21
2019-02-10T04:48:17.797Z,2.20
2019-02-10T04:50:48.047Z,2.15
2019-02-10T04:53:18.290Z,2.14
2019-02-10T04:56:08.147Z,2.10
2019-02-10T04:58:38.374Z,2.04
2019-02-10T05:01:08.629Z,2.02
2019-02-10T05:03:38.876Z,1.97
2019-02-10T05:06:09.135Z,1.98
2019-02-10T05:08:39.370Z,1.82
2019-02-10T05:11:09.631Z,1.97
2019-02-10T05:13:39.868Z,1.97
2019-02-10T05:16:10.127Z,1.95
2019-02-10T05:18:40.642Z,1.95
2019-02-10T05:21:10.902Z,2.03
2019-02-10T05:23:41.144Z,2.03
2019-02-10T05:26:11.404Z,2.01
2019-02-10T05:28:41.754Z,2.09
2019-02-10T05:31:13.613Z,2.09
2019-02-10T05:33:44.110Z,2.08
2019-02-10T05:36:14.372Z,2.08
2019-02-10T05:38:44.610Z,2.02
2019-02-10T05:41:14.877Z,2.05
2019-02-10T05:43:45.121Z,2.04
2019-02-10T05:46:15.376Z,2.04
2019-02-10T05:48:45.615Z,2.00
2019-02-10T05:51:16.638Z,2.03
2019-02-10T05:53:47.438Z,2.02
2019-02-10T05:56:17.964Z,2.02
2019-02-10T05:58:48.208Z,2.00
2019-02-10T06:01:54.955Z,2.00
2019-02-10T06:04:25.247Z,2.03
2019-02-10T06:06:58.944Z,2.03
2019-02-10T06:09:29.191Z,2.05
2019-02-10T06:11:59.454Z,1.99
2019-02-10T06:14:29.706Z,2.10
2019-02-10T06:16:59.983Z,2.18
2019-02-10T06:19:30.226Z,2.19
2019-02-10T06:22:00.492Z,2.24
2019-02-10T06:24:30.778Z,2.25
2019-02-10T06:27:01.002Z,2.33
2019-02-10T06:29:31.244Z,2.33
2019-02-10T06:32:01.504Z,2.43
2019-02-10T06:34:32.766Z,2.43
2019-02-10T06:37:03.031Z,2.61
2019-02-10T06:39:33.286Z,2.73
2019-02-10T06:42:03.544Z,2.98
2019-02-10T06:44:33.789Z,3.70
2019-02-10T06:47:04.058Z,4.34
2019-02-10T06:49:34.306Z,5.26
2019-02-10T06:52:04.571Z,5.64
2019-02-10T06:54:34.813Z,6.16
2019-02-10T06:57:05.094Z,6.49
2019-02-10T06:59:37.889Z,7.00
2019-02-10T07:02:12.729Z,7.69
2019-02-10T07:04:44.032Z,8.23
2019-02-10T07:07:14.271Z,8.04
2019-02-10T07:09:45.714Z,6.90
2019-02-10T07:12:47.392Z,6.68
2019-02-10T07:15:54.077Z,6.69
2019-02-10T07:19:03.211Z,6.84
2019-02-10T07:21:34.592Z,6.36
2019-02-10T07:24:24.469Z,6.27
2019-02-10T07:26:56.762Z,6.20
2019-02-10T07:29:30.258Z,6.22
2019-02-10T07:32:01.242Z,6.28
2019-02-10T07:34:48.094Z,6.44
2019-02-10T07:37:26.382Z,6.67
2019-02-10T07:40:24.012Z,7.53
2019-02-10T07:43:03.450Z,8.09
2019-02-10T07:45:54.485Z,9.30
2019-02-10T07:48:48.608Z,9.32
2019-02-10T07:51:34.069Z,9.28
2019-02-10T07:54:18.870Z,10.43
2019-02-10T07:57:03.341Z,11.57
2019-02-10T07:59:45.920Z,11.94
2019-02-10T08:02:22.002Z,12.05
2019-02-10T08:05:11.926Z,12.53
2019-02-10T08:07:48.108Z,12.84
2019-02-10T08:10:33.581Z,12.25
2019-02-10T08:13:23.491Z,11.85
2019-02-10T08:16:16.323Z,11.31
2019-02-10T08:19:02.040Z,10.80
2019-02-10T08:21:43.625Z,10.43
2019-02-10T08:24:38.944Z,9.65
2019-02-10T08:27:14.458Z,8.90
2019-02-10T08:29:53.748Z,8.50
2019-02-10T08:32:27.255Z,8.25
2019-02-10T08:35:24.447Z,7.94
2019-02-10T08:38:09.636Z,7.58
2019-02-10T08:41:00.917Z,7.38
2019-02-10T08:43:51.113Z,7.16
2019-02-10T08:46:36.794Z,7.06
2019-02-10T08:49:29.850Z,7.11
2019-02-10T08:52:05.925Z,7.15
2019-02-10T08:54:36.172Z,7.17
2019-02-10T08:57:06.426Z,7.20
2019-02-10T08:59:37.748Z,7.16
2019-02-10T09:02:07.991Z,7.24
2019-02-10T09:04:38.236Z,7.25
2019-02-10T09:07:08.473Z,7.12
2019-02-10T09:09:38.724Z,7.03
2019-02-10T09:12:08.971Z,7.18
2019-02-10T09:14:39.211Z,7.10
2019-02-10T09:17:09.451Z,6.99
2019-02-10T09:19:39.686Z,7.14
2019-02-10T09:22:09.999Z,7.19
2019-02-10T09:24:40.241Z,7.24
2019-02-10T09:27:12.078Z,7.26
2019-02-10T09:29:42.324Z,7.30
2019-02-10T09:32:12.580Z,7.52
2019-02-10T09:34:47.547Z,7.76
2019-02-10T09:37:18.425Z,7.76
2019-02-10T09:39:48.679Z,7.91
2019-02-10T09:42:18.926Z,8.17
2019-02-10T09:44:49.186Z,8.31
2019-02-10T09:47:19.438Z,8.33
2019-02-10T09:49:49.688Z,8.43
2019-02-10T09:52:19.937Z,8.46
2019-02-10T09:54:50.556Z,8.55
2019-02-10T09:57:20.799Z,8.54
2019-02-10T09:59:56.172Z,8.63
2019-02-10T10:02:29.041Z,8.67
2019-02-10T10:05:07.743Z,8.74
2019-02-10T10:07:42.149Z,9.07
2019-02-10T10:10:14.181Z,8.86
2019-02-10T10:12:59.955Z,8.67
2019-02-10T10:15:35.960Z,8.63
2019-02-10T10:18:07.674Z,8.63
2019-02-10T10:20:50.476Z,8.83
2019-02-10T10:23:22.162Z,8.80
2019-02-10T10:25:53.908Z,8.87
2019-02-10T10:28:24.164Z,9.01
2019-02-10T10:30:54.413Z,9.13
2019-02-10T10:33:24.666Z,9.19
2019-02-10T10:35:56.537Z,8.96
2019-02-10T10:38:26.797Z,8.95
2019-02-10T10:40:57.062Z,8.85
2019-02-10T10:43:27.313Z,8.70
2019-02-10T10:45:57.607Z,8.72
2019-02-10T10:48:32.307Z,8.54
2019-02-10T10:51:04.585Z,8.48
2019-02-10T10:53:40.141Z,8.42
2019-02-10T10:56:14.371Z,8.42
2019-02-10T10:58:46.850Z,8.39
2019-02-10T11:01:25.105Z,8.33
2019-02-10T11:03:52.137Z,8.31
2019-02-10T11:06:22.434Z,8.39
2019-02-10T11:08:53.933Z,8.37
2019-02-10T11:11:24.190Z,8.46
2019-02-10T11:13:55.685Z,8.44
2019-02-10T11:16:26.046Z,8.55
2019-02-10T11:18:56.329Z,8.84
2019-02-10T11:21:32.443Z,8.99
2019-02-10T11:24:03.059Z,9.30
2019-02-10T11:26:33.971Z,9.41
2019-02-10T11:29:05.521Z,9.55
2019-02-10T11:31:41.336Z,9.73
2019-02-10T11:34:17.129Z,9.85
2019-02-10T11:36:48.909Z,10.03
2019-02-10T11:39:31.134Z,10.14
2019-02-10T11:42:04.636Z,10.15
2019-02-10T11:44:35.480Z,10.28
2019-02-10T11:47:05.728Z,10.01
2019-02-10T11:49:41.907Z,9.82
2019-02-10T11:52:12.282Z,9.81
2019-02-10T11:54:42.538Z,9.79
2019-02-10T11:57:12.787Z,9.64
2019-02-10T11:59:43.025Z,9.63
2019-02-10T12:02:13.272Z,9.65
2019-02-10T12:04:43.522Z,9.58
2019-02-10T12:07:13.775Z,9.72
2019-02-10T12:09:51.379Z,9.71
2019-02-10T12:12:15.974Z,9.75
2019-02-10T12:14:46.226Z,9.92
2019-02-10T12:17:16.481Z,9.80
2019-02-10T12:19:46.720Z,9.66
2019-02-10T12:22:16.981Z,9.65
2019-02-10T12:24:47.240Z,9.60
2019-02-10T12:27:17.475Z,9.53
2019-02-10T12:29:47.726Z,9.42
2019-02-10T12:32:17.966Z,9.42
2019-02-10T12:34:48.222Z,9.35
2019-02-10T12:37:18.451Z,9.37
2019-02-10T12:39:48.692Z,9.40
2019-02-10T12:42:18.935Z,9.37
2019-02-10T12:44:49.185Z,9.40
2019-02-10T12:47:20.973Z,9.30
2019-02-10T12:49:51.248Z,9.18
2019-02-10T12:52:21.508Z,9.22
2019-02-10T12:54:51.770Z,9.14
2019-02-10T12:57:22.019Z,9.16
2019-02-10T12:59:52.281Z,9.10
2019-02-10T13:02:22.532Z,9.09
2019-02-10T13:04:52.809Z,9.22
2019-02-10T13:07:23.051Z,9.18
2019-02-10T13:09:53.302Z,9.17
2019-02-10T13:12:23.720Z,9.30
2019-02-10T13:14:53.976Z,9.26
2019-02-10T13:17:24.222Z,9.29
2019-02-10T13:19:54.507Z,9.40
2019-02-10T13:22:24.706Z,9.51
2019-02-10T13:24:54.956Z,9.53
2019-02-10T13:27:25.201Z,9.54
2019-02-10T13:29:55.459Z,9.61
2019-02-10T13:32:25.698Z,9.59
2019-02-10T13:34:55.944Z,9.58
2019-02-10T13:37:26.551Z,9.61
2019-02-10T13:39:56.824Z,9.53
2019-02-10T13:42:27.087Z,9.54
2019-02-10T13:44:57.332Z,9.50
2019-02-10T13:47:29.350Z,9.52
2019-02-10T13:49:59.606Z,9.49
2019-02-10T13:52:30.146Z,9.47
2019-02-10T13:55:00.469Z,9.48
2019-02-10T13:57:30.737Z,9.40
2019-02-10T14:00:00.989Z,9.38
2019-02-10T14:02:31.235Z,9.35
2019-02-10T14:05:01.488Z,9.34
2019-02-10T14:07:32.018Z,9.29
2019-02-10T14:10:02.279Z,9.21
2019-02-10T14:12:32.596Z,9.18
2019-02-10T14:15:02.867Z,9.16
2019-02-10T14:17:33.123Z,9.14
2019-02-10T14:20:03.857Z,9.10
2019-02-10T14:22:34.116Z,9.05
2019-02-10T14:25:05.816Z,9.00
2019-02-10T14:27:36.074Z,8.97
2019-02-10T14:30:09.588Z,8.97
2019-02-10T14:32:42.790Z,8.95
2019-02-10T14:35:15.507Z,8.91
2019-02-10T14:37:46.038Z,8.93
2019-02-10T14:40:17.514Z,8.86
2019-02-10T14:42:48.950Z,8.89
2019-02-10T14:45:20.382Z,8.90
2019-02-10T14:47:56.617Z,8.86
2019-02-10T14:50:26.973Z,8.86
2019-02-10T14:53:01.388Z,8.86
2019-02-10T14:55:38.118Z,8.83
2019-02-10T14:58:12.215Z,8.86
2019-02-10T15:00:45.985Z,8.83
2019-02-10T15:03:18.991Z,8.83
2019-02-10T15:05:54.111Z,8.82
2019-02-10T15:08:27.088Z,8.80
2019-02-10T15:11:00.337Z,8.77
2019-02-10T15:13:31.845Z,8.73
2019-02-10T15:16:02.364Z,8.70
2019-02-10T15:18:37.015Z,8.67
2019-02-10T15:21:07.266Z,8.63
2019-02-10T15:23:39.184Z,8.55
2019-02-10T15:26:10.613Z,8.46
2019-02-10T15:28:40.863Z,8.44
2019-02-10T15:31:14.849Z,8.33
2019-02-10T15:33:55.423Z,8.22
2019-02-10T15:36:33.708Z,8.13
2019-02-10T15:39:09.688Z,8.01
2019-02-10T15:41:52.298Z,7.89
2019-02-10T15:44:22.753Z,7.88
2019-02-10T15:46:54.875Z,7.76
2019-02-10T15:49:27.917Z,7.63
2019-02-10T15:52:00.449Z,7.55
2019-02-10T15:54:38.892Z,7.49
2019-02-10T15:57:09.905Z,7.41
2019-02-10T15:59:43.513Z,7.31
2019-02-10T16:02:14.134Z,7.24
2019-02-10T16:04:45.129Z,7.19
2019-02-10T16:07:15.373Z,7.15
2019-02-10T16:09:50.232Z,7.12
2019-02-10T16:12:23.132Z,7.04
2019-02-10T16:14:56.670Z,7.03
2019-02-10T16:17:27.587Z,6.95
2019-02-10T16:20:10.218Z,6.86
2019-02-10T16:22:46.055Z,6.80
2019-02-10T16:25:31.905Z,6.78
2019-02-10T16:28:03.518Z,6.78
2019-02-10T16:30:42.379Z,6.78
2019-02-10T16:33:23.107Z,6.75
2019-02-10T16:35:57.028Z,6.68
2019-02-10T16:38:30.102Z,6.62
2019-02-10T16:41:06.475Z,6.61
2019-02-10T16:43:36.157Z,6.58
2019-02-10T16:46:07.599Z,6.59
2019-02-10T16:48:37.852Z,6.52
2019-02-10T16:51:09.620Z,6.50
2019-02-10T16:53:42.271Z,6.51
2019-02-10T16:56:12.796Z,6.51
2019-02-10T16:58:43.417Z,6.52
2019-02-10T17:01:13.660Z,6.58
2019-02-10T17:03:43.976Z,6.62
2019-02-10T17:06:14.300Z,6.66
2019-02-10T17:08:44.552Z,6.70
2019-02-10T17:11:14.794Z,6.76
2019-02-10T17:13:47.017Z,6.75
2019-02-10T17:16:17.375Z,6.81
2019-02-10T17:18:47.659Z,6.81
2019-02-10T17:21:17.915Z,6.79
2019-02-10T17:23:53.115Z,6.79
2019-02-10T17:26:23.455Z,6.79
2019-02-10T17:28:55.390Z,6.77
2019-02-10T17:31:27.415Z,6.79
2019-02-10T17:33:58.465Z,6.81
2019-02-10T17:36:30.288Z,6.86
2019-02-10T17:39:02.024Z,6.79
2019-02-10T17:41:35.361Z,6.78
2019-02-10T17:44:07.528Z,6.74
2019-02-10T17:46:37.854Z,6.70
2019-02-10T17:49:09.376Z,6.64
2019-02-10T17:51:39.881Z,6.64
2019-02-10T17:54:10.126Z,6.62
2019-02-10T17:56:40.699Z,6.61
2019-02-10T17:59:16.423Z,6.60
2019-02-10T18:01:50.226Z,6.58
2019-02-10T18:04:22.350Z,6.48
2019-02-10T18:06:55.031Z,6.44
2019-02-10T18:09:25.293Z,6.36
2019-02-10T18:11:55.527Z,6.25
2019-02-10T18:14:39.297Z,6.22
2019-02-10T18:17:17.260Z,6.15
2019-02-10T18:19:55.249Z,6.13
2019-02-10T18:22:29.309Z,6.15
2019-02-10T18:25:21.910Z,6.12
2019-02-10T18:27:58.380Z,6.12
2019-02-10T18:30:31.347Z,6.09
2019-02-10T18:33:16.695Z,6.08
2019-02-10T18:35:55.699Z,6.09
2019-02-10T18:38:37.967Z,6.07
2019-02-10T18:41:27.899Z,6.06
2019-02-10T18:43:59.819Z,6.07
2019-02-10T18:46:34.698Z,6.10
2019-02-10T18:49:22.698Z,6.10
2019-02-10T18:52:09.856Z,6.10
2019-02-10T18:54:56.814Z,6.08
2019-02-10T18:57:31.427Z,6.06
2019-02-10T19:00:15.409Z,6.09
2019-02-10T19:02:47.726Z,6.03
2019-02-10T19:05:35.781Z,6.03
2019-02-10T19:08:09.338Z,6.05
2019-02-10T19:10:53.351Z,6.07
2019-02-10T19:13:37.498Z,6.05
2019-02-10T19:16:26.721Z,6.05
2019-02-10T19:19:01.703Z,6.08
2019-02-10T19:21:38.175Z,6.09
2019-02-10T19:24:25.105Z,6.09
2019-02-10T19:27:06.335Z,6.08
2019-02-10T19:29:39.497Z,6.09
2019-02-10T19:32:23.995Z,6.09
2019-02-10T19:35:02.102Z,6.09
2019-02-10T19:37:39.988Z,6.07
2019-02-10T19:40:31.490Z,6.06
2019-02-10T19:43:14.194Z,6.04
2019-02-10T19:45:48.612Z,6.03
2019-02-10T19:48:36.210Z,6.01
2019-02-10T19:51:12.941Z,6.01
2019-02-10T19:54:04.992Z,5.97
2019-02-10T19:56:52.965Z,6.01
2019-02-10T19:59:29.731Z,5.95
2019-02-10T20:02:04.254Z,6.01
2019-02-10T20:04:44.703Z,6.01
2019-02-10T20:07:20.606Z,6.05
2019-02-10T20:10:04.273Z,6.04
2019-02-10T20:12:37.727Z,6.07
2019-02-10T20:15:11.850Z,6.09
2019-02-10T20:18:02.152Z,6.12
2019-02-10T20:20:36.570Z,6.11
2019-02-10T20:23:20.763Z,6.13
2019-02-10T20:26:11.756Z,6.18
2019-02-10T20:28:52.585Z,6.21
2019-02-10T20:31:24.478Z,6.22
2019-02-10T20:33:59.061Z,6.22
2019-02-10T20:36:37.139Z,6.22
2019-02-10T20:39:12.904Z,6.21
2019-02-10T20:41:58.014Z,6.22
2019-02-10T20:44:31.587Z,6.24
2019-02-10T20:47:17.003Z,6.23
2019-02-10T20:49:59.554Z,6.23
2019-02-10T20:52:36.486Z,6.20
2019-02-10T20:55:16.154Z,6.25
2019-02-10T20:57:53.288Z,6.21
2019-02-10T21:00:38.897Z,6.19
2019-02-10T21:03:11.235Z,6.22
2019-02-10T21:05:54.720Z,6.21
2019-02-10T21:08:26.787Z,6.21
2019-02-10T21:11:00.442Z,6.17
2019-02-10T21:13:51.254Z,6.15
2019-02-10T21:16:40.111Z,6.16
2019-02-10T21:19:20.882Z,6.11
2019-02-10T21:22:07.651Z,6.12
2019-02-10T21:24:49.315Z,6.10
2019-02-10T21:27:26.172Z,6.04
2019-02-10T21:30:10.888Z,6.05
2019-02-10T21:32:49.736Z,5.99
2019-02-10T21:35:29.672Z,5.96
2019-02-10T21:38:07.078Z,5.93
2019-02-10T21:40:45.416Z,5.96
2019-02-10T21:43:25.189Z,5.99
2019-02-10T21:45:58.403Z,5.97
2019-02-10T21:48:33.627Z,5.95
2019-02-10T21:51:04.036Z,5.94
2019-02-10T21:53:37.542Z,5.94
2019-02-10T21:56:07.888Z,5.91
2019-02-10T21:58:39.351Z,5.93
2019-02-10T22:01:11.541Z,5.90
2019-02-10T22:03:45.179Z,5.92
2019-02-10T22:06:16.658Z,5.95
2019-02-10T22:08:47.336Z,5.96
2019-02-10T22:11:20.626Z,5.95
2019-02-10T22:13:50.888Z,5.95
2019-02-10T22:16:22.854Z,5.99
2019-02-10T22:18:53.410Z,5.99
2019-02-10T22:21:23.739Z,6.01
2019-02-10T22:23:53.976Z,6.03
2019-02-10T22:26:24.686Z,6.09
2019-02-10T22:28:54.939Z,6.08
2019-02-10T22:31:25.181Z,6.07
2019-02-10T22:33:55.435Z,6.11
2019-02-10T22:36:25.690Z,6.13
2019-02-10T22:38:55.954Z,6.14
2019-02-10T22:41:26.191Z,6.14
2019-02-10T22:43:59.148Z,6.17
2019-02-10T22:46:29.391Z,6.20
2019-02-10T22:48:59.661Z,6.20
2019-02-10T22:51:29.894Z,6.20
2019-02-10T22:54:00.159Z,6.19
2019-02-10T22:56:30.396Z,6.16
2019-02-10T22:59:00.659Z,6.09
2019-02-10T23:01:30.976Z,6.07
2019-02-10T23:04:01.224Z,5.99
2019-02-10T23:06:31.467Z,6.03
2019-02-10T23:09:01.724Z,6.02
2019-02-10T23:11:33.573Z,6.06
2019-02-10T23:14:03.855Z,6.06
2019-02-10T23:16:34.067Z,6.06
2019-02-10T23:19:04.327Z,6.05
2019-02-10T23:21:34.563Z,6.06
2019-02-10T23:24:04.818Z,6.08
2019-02-10T23:26:35.062Z,6.10
2019-02-10T23:29:05.332Z,6.09
2019-02-10T23:31:35.584Z,6.10
2019-02-10T23:34:05.845Z,6.14
2019-02-10T23:36:36.085Z,6.16
2019-02-10T23:39:06.352Z,6.16
2019-02-10T23:41:37.570Z,6.17
2019-02-10T23:44:07.828Z,6.20
2019-02-10T23:46:38.072Z,6.22
2019-02-10T23:49:08.325Z,6.26
2019-02-10T23:51:38.562Z,6.21
2019-02-10T23:54:09.288Z,6.21
2019-02-10T23:56:46.945Z,6.21
2019-02-10T23:59:13.248Z,6.18
